Time;durP1;ratioP1;P1;durP2;ratioP2;P2;SDS_P1;SDS_P2;PMS_P1;PMS_P2;Temp;Humidity;BMP_temperature;BMP_pressure;BME280_temperature;BME280_humidity;BME280_pressure;Samples;Min_cycle;Max_cycle;Signal;HPM_P1;HPM_P2
2022/03/11 00:01:39;;;;;;;;;;;6.70;51.90;;;;;;2326022;58;20172;-75
2022/03/11 00:04:06;;;;;;;;;;;6.70;51.50;;;;;;2326315;58;20171;-75
2022/03/11 00:06:32;;;;;;;;;;;6.60;51.40;;;;;;2326486;58;20341;-75
2022/03/11 00:08:59;;;;;;;;;;;6.60;52.10;;;;;;2326358;58;20115;-75
2022/03/11 00:11:25;;;;;;;;;;;6.60;52.30;;;;;;2326399;58;20146;-75
2022/03/11 00:13:52;;;;;;;;;;;6.60;51.90;;;;;;2326256;58;20133;-75
2022/03/11 00:16:19;;;;;;;;;;;6.60;51.30;;;;;;2326111;58;20086;-75
2022/03/11 00:18:45;;;;;;;;;;;6.50;50.80;;;;;;2326276;58;20082;-76
2022/03/11 00:21:12;;;;;;;;;;;6.50;51.40;;;;;;2567836;53;20519;-75
2022/03/11 00:23:39;;;;;;;;;;;6.40;51.50;;;;;;2326532;58;20082;-75
2022/03/11 00:26:06;;;;;;;;;;;6.40;50.70;;;;;;2326334;58;20173;-75
2022/03/11 00:28:32;;;;;;;;;;;6.40;51.10;;;;;;2326111;58;20137;-75
2022/03/11 00:30:59;;;;;;;;;;;6.40;51.80;;;;;;2326030;58;20129;-75
2022/03/11 00:33:25;;;;;;;;;;;6.40;52.50;;;;;;2326262;58;20077;-75
2022/03/11 00:35:52;;;;;;;;;;;6.40;51.10;;;;;;2568978;54;20118;-75
2022/03/11 00:38:18;;;;;;;;;;;6.30;51.50;;;;;;2326102;58;20326;-75
2022/03/11 00:40:45;;;;;;;;;;;6.30;52.30;;;;;;2325631;58;20114;-75
2022/03/11 00:43:11;;;;;;;;;;;6.20;51.50;;;;;;2326356;58;20841;-75
2022/03/11 00:45:37;;;;;;;;;;;6.20;52.60;;;;;;2326468;58;20085;-75
2022/03/11 00:48:04;;;;;;;;;;;6.20;51.90;;;;;;2568936;54;20078;-75
2022/03/11 00:50:31;;;;;;;;;;;6.20;51.60;;;;;;2326436;58;20070;-75
2022/03/11 00:52:57;;;;;;;;;;;6.20;50.70;;;;;;2326087;58;20126;-74
2022/03/11 00:55:26;;;;;;;;;;;6.10;50.70;;;;;;2326913;58;20534;-75
2022/03/11 00:57:53;;;;;;;;;;;6.20;51.30;;;;;;2326295;58;20086;-75
2022/03/11 01:00:19;;;;;;;;;;;6.10;51.00;;;;;;2326242;58;20074;-75
2022/03/11 01:02:46;;;;;;;;;;;6.10;51.80;;;;;;2566247;53;20074;-75
2022/03/11 01:05:12;;;;;;;;;;;6.10;51.10;;;;;;2326137;58;20114;-75
2022/03/11 01:07:39;;;;;;;;;;;6.00;51.20;;;;;;2326566;58;20396;-76
2022/03/11 01:10:06;;;;;;;;;;;6.10;52.70;;;;;;2325298;58;20150;-75
2022/03/11 01:12:33;;;;;;;;;;;6.00;51.60;;;;;;2325681;58;20066;-75
2022/03/11 01:14:59;;;;;;;;;;;6.00;51.20;;;;;;2326363;58;20122;-75
2022/03/11 01:17:26;;;;;;;;;;;6.00;51.70;;;;;;2326337;58;20090;-75
2022/03/11 01:19:52;;;;;;;;;;;6.00;51.60;;;;;;2325056;58;20090;-75
2022/03/11 01:22:19;;;;;;;;;;;6.00;51.00;;;;;;2325487;58;20285;-75
2022/03/11 01:24:45;;;;;;;;;;;5.90;52.00;;;;;;2326613;58;20070;-75
2022/03/11 01:27:12;;;;;;;;;;;6.00;52.10;;;;;;2326300;58;20759;-75
2022/03/11 01:29:38;;;;;;;;;;;6.00;51.90;;;;;;2568673;54;20142;-75
2022/03/11 01:32:05;;;;;;;;;;;5.90;51.60;;;;;;2326250;57;20126;-75
2022/03/11 01:34:32;;;;;;;;;;;5.90;52.20;;;;;;2326524;58;20096;-75
2022/03/11 01:36:58;;;;;;;;;;;5.90;52.20;;;;;;2324729;58;20125;-75
2022/03/11 01:39:25;;;;;;;;;;;5.90;53.00;;;;;;2325541;58;20062;-75
2022/03/11 01:41:52;;;;;;;;;;;5.90;53.30;;;;;;2326380;58;20146;-75
2022/03/11 01:44:18;;;;;;;;;;;5.90;51.50;;;;;;2326466;58;20110;-74
2022/03/11 01:46:45;;;;;;;;;;;5.80;51.50;;;;;;2326727;58;20054;-75
2022/03/11 01:49:11;;;;;;;;;;;5.80;51.70;;;;;;2325997;58;20528;-75
2022/03/11 01:51:39;;;;;;;;;;;5.80;51.60;;;;;;2326094;58;20126;-75
2022/03/11 01:54:05;;;;;;;;;;;5.70;51.20;;;;;;2566934;54;20054;-75
2022/03/11 01:56:33;;;;;;;;;;;5.70;51.50;;;;;;2325994;58;20070;-75
2022/03/11 01:58:59;;;;;;;;;;;5.70;52.30;;;;;;2325724;58;20078;-75
2022/03/11 02:01:26;;;;;;;;;;;5.70;51.90;;;;;;2326351;58;20382;-75
2022/03/11 02:03:52;;;;;;;;;;;5.70;52.20;;;;;;2326148;58;20126;-75
2022/03/11 02:06:19;;;;;;;;;;;5.60;52.40;;;;;;2568763;54;20189;-75
2022/03/11 02:08:46;;;;;;;;;;;5.60;51.20;;;;;;2326433;58;20142;-75
2022/03/11 02:11:12;;;;;;;;;;;5.60;51.70;;;;;;2324072;58;20078;-75
2022/03/11 02:13:43;;;;;;;;;;;5.50;51.20;;;;;;2326518;58;20066;-75
2022/03/11 02:16:10;;;;;;;;;;;5.50;50.50;;;;;;2326276;58;20066;-75
2022/03/11 02:18:37;;;;;;;;;;;5.40;50.70;;;;;;2568618;54;20067;-75
2022/03/11 02:21:03;;;;;;;;;;;5.40;50.60;;;;;;2326126;58;20178;-75
2022/03/11 02:23:30;;;;;;;;;;;5.30;51.30;;;;;;2326383;58;20082;-75
2022/03/11 02:25:56;;;;;;;;;;;5.40;51.50;;;;;;2326370;58;20098;-75
2022/03/11 02:28:32;;;;;;;;;;;5.40;51.80;;;;;;2568411;54;20182;-75
2022/03/11 02:30:58;;;;;;;;;;;5.40;52.40;;;;;;2325748;58;20146;-75
2022/03/11 02:33:25;;;;;;;;;;;5.40;51.90;;;;;;2326492;58;20070;-75
2022/03/11 02:35:52;;;;;;;;;;;5.40;51.00;;;;;;2327919;57;20119;-75
2022/03/11 02:38:19;;;;;;;;;;;5.30;51.20;;;;;;2334268;57;20070;-75
2022/03/11 02:40:45;;;;;;;;;;;5.30;51.60;;;;;;2333898;57;20086;-75
2022/03/11 02:43:12;;;;;;;;;;;5.30;52.00;;;;;;2334465;57;20098;-75
2022/03/11 02:45:38;;;;;;;;;;;5.30;51.90;;;;;;2334486;57;20090;-75
2022/03/11 02:48:05;;;;;;;;;;;5.30;52.00;;;;;;2334153;57;20079;-75
2022/03/11 02:50:32;;;;;;;;;;;5.30;52.90;;;;;;2334103;57;20133;-75
2022/03/11 02:52:58;;;;;;;;;;;5.30;51.70;;;;;;2334717;57;20263;-75
2022/03/11 02:55:25;;;;;;;;;;;5.20;52.30;;;;;;2333778;57;20075;-75
2022/03/11 02:57:51;;;;;;;;;;;5.20;51.80;;;;;;2578478;53;20070;-75
2022/03/11 03:00:18;;;;;;;;;;;5.20;51.50;;;;;;2333987;57;20086;-75
2022/03/11 03:02:45;;;;;;;;;;;5.20;51.40;;;;;;2334598;57;20067;-75
2022/03/11 03:05:13;;;;;;;;;;;5.10;51.80;;;;;;2333817;57;20115;-75
2022/03/11 03:07:40;;;;;;;;;;;5.10;51.50;;;;;;2334409;57;20083;-75
2022/03/11 03:10:08;;;;;;;;;;;5.10;51.60;;;;;;2577822;53;20079;-75
2022/03/11 03:12:35;;;;;;;;;;;5.10;51.40;;;;;;2332363;57;20067;-75
2022/03/11 03:15:01;;;;;;;;;;;5.10;51.70;;;;;;2332645;57;20063;-75
2022/03/11 03:17:28;;;;;;;;;;;5.10;52.10;;;;;;2334720;57;20127;-75
2022/03/11 03:19:55;;;;;;;;;;;5.10;52.40;;;;;;2334192;57;20143;-75
2022/03/11 03:22:21;;;;;;;;;;;5.10;51.70;;;;;;2334926;57;20079;-75
2022/03/11 03:24:48;;;;;;;;;;;5.10;52.20;;;;;;2334466;57;20091;-75
2022/03/11 03:27:14;;;;;;;;;;;5.00;51.30;;;;;;2577908;53;20138;-75
2022/03/11 03:29:41;;;;;;;;;;;5.00;52.80;;;;;;2330835;57;20386;-75
2022/03/11 03:32:08;;;;;;;;;;;4.90;52.20;;;;;;2334540;57;20063;-75
2022/03/11 03:34:36;;;;;;;;;;;4.90;52.60;;;;;;2344848;53;20284;-76
2022/03/11 03:37:03;;;;;;;;;;;4.90;52.30;;;;;;2378926;53;20066;-75
2022/03/11 03:39:30;;;;;;;;;;;5.00;51.80;;;;;;2386031;53;20137;-75
2022/03/11 03:41:57;;;;;;;;;;;4.90;52.00;;;;;;2371371;56;20320;-75
2022/03/11 03:44:24;;;;;;;;;;;4.90;51.90;;;;;;2371094;56;20077;-75
2022/03/11 03:46:50;;;;;;;;;;;4.90;51.80;;;;;;2371032;56;20061;-75
2022/03/11 03:49:17;;;;;;;;;;;4.90;51.40;;;;;;2371314;56;20062;-76
2022/03/11 03:51:44;;;;;;;;;;;4.80;51.70;;;;;;2375391;53;20070;-75
2022/03/11 03:54:10;;;;;;;;;;;4.80;51.60;;;;;;2371174;56;20073;-75
2022/03/11 03:56:37;;;;;;;;;;;4.70;51.00;;;;;;2378224;53;20082;-76
2022/03/11 03:59:05;;;;;;;;;;;4.70;51.00;;;;;;2378920;53;20081;-75
2022/03/11 04:01:33;;;;;;;;;;;4.60;51.20;;;;;;2371363;56;20126;-75
2022/03/11 04:03:59;;;;;;;;;;;4.60;51.10;;;;;;2370984;56;20399;-75
2022/03/11 04:06:27;;;;;;;;;;;4.60;51.10;;;;;;2371155;56;20081;-76
2022/03/11 04:08:56;;;;;;;;;;;4.70;51.90;;;;;;2370717;56;20149;-75
2022/03/11 04:11:23;;;;;;;;;;;4.60;51.90;;;;;;2370885;56;20078;-76
2022/03/11 04:13:50;;;;;;;;;;;4.50;51.30;;;;;;2371174;56;20116;-75
2022/03/11 04:16:17;;;;;;;;;;;4.50;51.00;;;;;;2382259;53;20128;-75
2022/03/11 04:18:43;;;;;;;;;;;4.40;50.70;;;;;;2370935;56;20117;-75
2022/03/11 04:21:10;;;;;;;;;;;4.40;51.00;;;;;;2370798;56;20074;-76
2022/03/11 04:23:36;;;;;;;;;;;4.40;50.80;;;;;;2370942;56;20356;-76
2022/03/11 04:26:03;;;;;;;;;;;4.40;51.10;;;;;;2370980;56;20126;-75
2022/03/11 04:28:29;;;;;;;;;;;4.40;51.20;;;;;;2371286;56;20149;-75
2022/03/11 04:30:56;;;;;;;;;;;4.40;52.50;;;;;;2369915;56;20305;-75
2022/03/11 04:33:22;;;;;;;;;;;4.30;52.70;;;;;;2378108;53;20164;-76
2022/03/11 04:35:49;;;;;;;;;;;4.30;52.60;;;;;;2375212;53;20054;-76
2022/03/11 04:38:15;;;;;;;;;;;4.30;52.10;;;;;;2371994;53;20181;-76
2022/03/11 04:40:42;;;;;;;;;;;4.30;52.10;;;;;;2380743;53;20090;-75
2022/03/11 04:43:09;;;;;;;;;;;4.30;51.60;;;;;;2369673;56;20320;-76
2022/03/11 04:45:35;;;;;;;;;;;4.30;51.40;;;;;;2368657;53;20050;-76
2022/03/11 04:48:03;;;;;;;;;;;4.20;51.50;;;;;;2371051;56;20082;-75
2022/03/11 04:50:30;;;;;;;;;;;4.20;51.90;;;;;;2370722;56;20073;-75
2022/03/11 04:52:57;;;;;;;;;;;4.20;51.80;;;;;;2371087;56;20070;-75
2022/03/11 04:55:23;;;;;;;;;;;4.10;50.90;;;;;;2376787;53;20082;-76
2022/03/11 04:57:50;;;;;;;;;;;4.10;51.10;;;;;;2427131;53;20117;-76
2022/03/11 05:00:17;;;;;;;;;;;4.00;50.70;;;;;;2369068;56;20089;-75
2022/03/11 05:02:45;;;;;;;;;;;4.00;51.40;;;;;;2367002;56;20074;-75
2022/03/11 05:05:11;;;;;;;;;;;4.00;52.40;;;;;;2369012;56;20376;-77
2022/03/11 05:07:42;;;;;;;;;;;4.00;52.50;;;;;;2369079;56;20073;-77
2022/03/11 05:10:10;;;;;;;;;;;4.00;52.60;;;;;;2370124;53;20121;-75
2022/03/11 05:12:37;;;;;;;;;;;4.00;53.10;;;;;;2369565;56;20070;-75
2022/03/11 05:15:05;;;;;;;;;;;4.00;52.60;;;;;;2374219;53;20164;-75
2022/03/11 05:17:31;;;;;;;;;;;4.00;52.40;;;;;;2376240;53;20357;-77
2022/03/11 05:19:58;;;;;;;;;;;4.00;52.70;;;;;;2372043;53;20223;-76
2022/03/11 05:22:25;;;;;;;;;;;4.00;53.10;;;;;;2370901;56;20124;-76
2022/03/11 05:24:52;;;;;;;;;;;4.00;52.40;;;;;;2402387;53;20078;-78
2022/03/11 05:27:18;;;;;;;;;;;3.90;53.10;;;;;;2377846;53;20299;-76
2022/03/11 05:29:45;;;;;;;;;;;4.00;53.50;;;;;;2391776;53;20145;-75
2022/03/11 05:32:14;;;;;;;;;;;3.90;52.20;;;;;;2370894;56;20069;-75
2022/03/11 05:34:42;;;;;;;;;;;3.90;52.30;;;;;;2371151;56;20073;-76
2022/03/11 05:37:09;;;;;;;;;;;3.90;52.00;;;;;;2370614;56;20121;-76
2022/03/11 05:39:36;;;;;;;;;;;3.90;52.70;;;;;;2372811;53;20078;-75
2022/03/11 05:42:03;;;;;;;;;;;3.90;52.60;;;;;;2370813;56;20121;-75
2022/03/11 05:44:30;;;;;;;;;;;3.90;52.00;;;;;;2371011;56;20066;-75
2022/03/11 05:46:56;;;;;;;;;;;3.90;52.80;;;;;;2370880;56;20137;-76
2022/03/11 05:49:23;;;;;;;;;;;3.90;52.70;;;;;;2370276;56;20474;-75
2022/03/11 05:51:51;;;;;;;;;;;3.90;53.10;;;;;;2376191;53;20053;-75
2022/03/11 05:54:18;;;;;;;;;;;3.90;52.60;;;;;;2371070;56;20768;-75
2022/03/11 05:56:50;;;;;;;;;;;3.90;52.60;;;;;;2370933;56;20328;-75
2022/03/11 05:59:16;;;;;;;;;;;3.80;52.30;;;;;;2376131;53;20106;-76
2022/03/11 06:01:44;;;;;;;;;;;3.80;52.40;;;;;;2370811;56;20321;-76
2022/03/11 06:04:11;;;;;;;;;;;3.80;52.30;;;;;;2371250;56;20156;-76
2022/03/11 06:06:37;;;;;;;;;;;3.80;52.30;;;;;;2370962;56;20125;-76
2022/03/11 06:09:04;;;;;;;;;;;3.80;52.30;;;;;;2370584;56;20137;-75
2022/03/11 06:11:30;;;;;;;;;;;3.70;51.70;;;;;;2374738;53;20069;-76
2022/03/11 06:13:57;;;;;;;;;;;3.70;52.50;;;;;;2371790;56;20361;-75
2022/03/11 06:16:24;;;;;;;;;;;3.70;51.90;;;;;;2394452;53;20140;-75
2022/03/11 06:18:50;;;;;;;;;;;3.80;52.00;;;;;;2384157;53;20311;-75
2022/03/11 06:21:17;;;;;;;;;;;3.80;53.10;;;;;;2370381;56;20130;-77
2022/03/11 06:23:43;;;;;;;;;;;3.70;51.80;;;;;;2371195;56;20078;-75
2022/03/11 06:26:10;;;;;;;;;;;3.70;51.20;;;;;;2384705;53;20359;-75
2022/03/11 06:28:36;;;;;;;;;;;3.70;51.70;;;;;;2386947;53;20795;-75
2022/03/11 06:31:03;;;;;;;;;;;3.70;52.60;;;;;;2386340;53;20149;-75
2022/03/11 06:33:29;;;;;;;;;;;3.70;52.60;;;;;;2371099;56;20145;-75
2022/03/11 06:35:56;;;;;;;;;;;3.70;52.20;;;;;;2368748;56;20137;-75
2022/03/11 06:38:22;;;;;;;;;;;3.60;52.80;;;;;;2371054;56;20082;-75
2022/03/11 06:40:49;;;;;;;;;;;3.70;52.00;;;;;;2371195;56;20062;-75
2022/03/11 06:43:16;;;;;;;;;;;3.70;52.40;;;;;;2371420;56;20125;-74
2022/03/11 06:45:42;;;;;;;;;;;3.70;51.60;;;;;;2385834;53;20121;-75
2022/03/11 06:48:09;;;;;;;;;;;3.60;50.80;;;;;;2388791;53;20062;-75
2022/03/11 06:50:35;;;;;;;;;;;3.60;51.40;;;;;;2402929;53;20073;-75
2022/03/11 06:53:02;;;;;;;;;;;3.70;51.00;;;;;;2368385;56;20101;-75
2022/03/11 06:55:28;;;;;;;;;;;3.70;50.90;;;;;;2389595;53;20077;-75
2022/03/11 06:57:55;;;;;;;;;;;3.60;50.60;;;;;;2370475;56;20101;-75
2022/03/11 07:00:21;;;;;;;;;;;3.50;50.20;;;;;;2377404;53;20082;-75
2022/03/11 07:02:48;;;;;;;;;;;3.50;49.80;;;;;;2370995;56;20317;-75
2022/03/11 07:05:14;;;;;;;;;;;3.50;50.40;;;;;;2370857;56;20070;-74
2022/03/11 07:07:41;;;;;;;;;;;3.50;50.60;;;;;;2370212;56;20566;-74
2022/03/11 07:10:10;;;;;;;;;;;3.50;51.00;;;;;;2377620;53;20098;-75
2022/03/11 07:12:36;;;;;;;;;;;3.50;52.20;;;;;;2369794;56;20145;-75
2022/03/11 07:15:05;;;;;;;;;;;3.60;53.40;;;;;;2379427;53;20117;-75
2022/03/11 07:17:31;;;;;;;;;;;3.70;52.20;;;;;;2370138;56;20086;-75
2022/03/11 07:19:58;;;;;;;;;;;3.70;53.50;;;;;;2370259;56;20117;-75
2022/03/11 07:22:25;;;;;;;;;;;3.70;52.60;;;;;;2370415;56;20156;-74
2022/03/11 07:24:51;;;;;;;;;;;3.70;53.00;;;;;;2387645;53;20189;-75
2022/03/11 07:27:18;;;;;;;;;;;3.80;53.60;;;;;;2368670;56;20276;-75
2022/03/11 07:29:44;;;;;;;;;;;3.80;52.80;;;;;;2368006;56;20324;-75
2022/03/11 07:32:12;;;;;;;;;;;3.80;51.10;;;;;;2371073;56;20074;-75
2022/03/11 07:34:39;;;;;;;;;;;3.80;51.20;;;;;;2370425;56;20082;-75
2022/03/11 07:37:06;;;;;;;;;;;3.80;51.20;;;;;;2388154;53;20066;-75
2022/03/11 07:39:33;;;;;;;;;;;3.80;51.00;;;;;;2369143;56;20101;-75
2022/03/11 07:41:59;;;;;;;;;;;3.90;51.60;;;;;;2370682;56;20419;-75
2022/03/11 07:44:26;;;;;;;;;;;3.90;51.40;;;;;;2370521;56;20070;-75
2022/03/11 07:46:52;;;;;;;;;;;4.00;51.60;;;;;;2370664;56;20412;-75
2022/03/11 07:49:19;;;;;;;;;;;4.00;52.10;;;;;;2390646;53;20093;-75
2022/03/11 07:51:46;;;;;;;;;;;4.10;53.40;;;;;;2370707;56;20070;-75
2022/03/11 07:54:12;;;;;;;;;;;4.10;53.20;;;;;;2369834;53;20082;-75
2022/03/11 07:56:40;;;;;;;;;;;4.10;51.60;;;;;;2370079;56;20396;-75
2022/03/11 07:59:06;;;;;;;;;;;4.10;50.00;;;;;;2368978;56;20133;-75
2022/03/11 08:01:33;;;;;;;;;;;4.10;49.30;;;;;;2398539;53;20077;-75
2022/03/11 08:04:00;;;;;;;;;;;4.00;49.10;;;;;;2388407;53;20077;-75
2022/03/11 08:06:26;;;;;;;;;;;4.10;50.20;;;;;;2368337;56;20379;-75
2022/03/11 08:08:53;;;;;;;;;;;4.10;49.50;;;;;;2368052;56;20082;-75
2022/03/11 08:11:19;;;;;;;;;;;4.20;50.30;;;;;;2376027;53;20092;-75
2022/03/11 08:13:46;;;;;;;;;;;4.20;50.10;;;;;;2368338;56;20077;-75
2022/03/11 08:16:13;;;;;;;;;;;4.30;50.40;;;;;;2370177;56;20193;-75
2022/03/11 08:18:40;;;;;;;;;;;4.30;50.20;;;;;;2371160;53;20118;-75
2022/03/11 08:21:07;;;;;;;;;;;4.30;50.50;;;;;;2371244;56;20085;-75
2022/03/11 08:23:34;;;;;;;;;;;4.40;50.50;;;;;;2371317;56;20137;-75
2022/03/11 08:26:00;;;;;;;;;;;4.50;52.10;;;;;;2371109;56;20162;-75
2022/03/11 08:28:27;;;;;;;;;;;4.50;49.60;;;;;;2371166;56;20062;-75
2022/03/11 08:33:32;;;;;;;;;;;4.60;52.60;;;;;;2359846;57;20292;-76
2022/03/11 08:35:59;;;;;;;;;;;4.60;50.80;;;;;;2389482;52;20140;-75
2022/03/11 08:38:25;;;;;;;;;;;4.70;51.80;;;;;;2378131;56;20806;-75
2022/03/11 08:40:52;;;;;;;;;;;4.70;51.40;;;;;;2373859;56;20157;-75
2022/03/11 08:43:19;;;;;;;;;;;4.80;50.60;;;;;;2352804;53;20078;-75
2022/03/11 08:45:46;;;;;;;;;;;4.80;50.50;;;;;;2350612;53;20129;-76
2022/03/11 08:48:12;;;;;;;;;;;4.90;51.70;;;;;;2351235;57;20058;-75
2022/03/11 08:50:39;;;;;;;;;;;4.90;51.50;;;;;;2350518;57;20346;-76
2022/03/11 08:53:05;;;;;;;;;;;4.90;50.50;;;;;;2351137;57;20074;-76
2022/03/11 08:55:32;;;;;;;;;;;5.00;50.50;;;;;;2371982;53;20114;-76
2022/03/11 08:57:58;;;;;;;;;;;5.00;49.20;;;;;;2351267;57;20132;-76
2022/03/11 09:00:26;;;;;;;;;;;5.00;48.40;;;;;;2382631;53;20078;-76
2022/03/11 09:02:52;;;;;;;;;;;5.00;48.60;;;;;;2350318;57;20333;-76
2022/03/11 09:05:20;;;;;;;;;;;5.10;49.00;;;;;;2351103;57;20106;-76
2022/03/11 09:07:48;;;;;;;;;;;5.10;48.80;;;;;;2351296;57;20082;-75
2022/03/11 09:10:15;;;;;;;;;;;5.10;47.10;;;;;;2350568;57;20075;-75
2022/03/11 09:12:42;;;;;;;;;;;5.10;47.00;;;;;;2350994;57;20066;-75
2022/03/11 09:15:10;;;;;;;;;;;5.20;48.30;;;;;;2350834;57;20070;-76
2022/03/11 09:17:37;;;;;;;;;;;5.20;46.70;;;;;;2350342;57;20392;-75
2022/03/11 09:20:06;;;;;;;;;;;5.20;46.70;;;;;;2350764;57;20074;-75
2022/03/11 09:22:33;;;;;;;;;;;5.30;44.90;;;;;;2350621;57;20070;-75
2022/03/11 09:25:00;;;;;;;;;;;5.30;46.10;;;;;;2362104;53;20078;-76
2022/03/11 09:27:29;;;;;;;;;;;5.30;46.60;;;;;;2362851;53;20075;-75
2022/03/11 09:29:56;;;;;;;;;;;5.40;46.20;;;;;;2350483;57;20063;-76
2022/03/11 09:32:22;;;;;;;;;;;5.50;47.60;;;;;;2350894;55;20165;-75
2022/03/11 09:34:49;;;;;;;;;;;5.50;45.20;;;;;;2335869;56;20076;-74
2022/03/11 09:37:15;;;;;;;;;;;5.50;45.10;;;;;;2297118;58;20096;-75
2022/03/11 09:39:42;;;;;;;;;;;5.60;46.20;;;;;;2296500;58;20755;-75
2022/03/11 09:42:09;;;;;;;;;;;5.60;46.40;;;;;;2314582;58;20325;-74
2022/03/11 09:44:35;;;;;;;;;;;5.60;45.00;;;;;;2322579;58;20071;-74
2022/03/11 09:47:02;;;;;;;;;;;5.70;43.50;;;;;;2322369;58;20068;-75
2022/03/11 09:49:33;;;;;;;;;;;5.70;44.10;;;;;;2322449;58;20091;-75
2022/03/11 09:52:00;;;;;;;;;;;5.70;44.00;;;;;;2322682;58;20124;-74
2022/03/11 09:54:27;;;;;;;;;;;5.80;44.80;;;;;;2322647;58;20134;-74
2022/03/11 09:56:53;;;;;;;;;;;5.80;45.10;;;;;;2322846;58;20326;-74
2022/03/11 09:59:20;;;;;;;;;;;5.90;46.30;;;;;;2319391;58;20083;-74
2022/03/11 10:01:46;;;;;;;;;;;6.00;46.00;;;;;;2321994;58;20341;-74
2022/03/11 10:04:13;;;;;;;;;;;6.00;46.90;;;;;;2322731;58;20076;-74
2022/03/11 10:06:40;;;;;;;;;;;6.00;45.10;;;;;;2322406;58;20122;-75
2022/03/11 10:09:07;;;;;;;;;;;6.10;44.90;;;;;;2322003;58;20079;-75
2022/03/11 10:11:35;;;;;;;;;;;6.10;45.10;;;;;;2322525;58;20127;-74
2022/03/11 10:14:06;;;;;;;;;;;6.20;44.20;;;;;;2322267;58;20084;-74
2022/03/11 10:16:33;;;;;;;;;;;6.20;42.80;;;;;;2321794;58;20130;-74
2022/03/11 10:19:01;;;;;;;;;;;6.20;43.10;;;;;;2321582;58;20091;-74
2022/03/11 10:21:31;;;;;;;;;;;6.20;42.10;;;;;;2322425;58;20083;-74
2022/03/11 10:23:58;;;;;;;;;;;6.20;40.00;;;;;;2322514;58;20064;-74
2022/03/11 10:26:31;;;;;;;;;;;6.30;43.60;;;;;;2322150;58;20077;-74
2022/03/11 10:28:58;;;;;;;;;;;6.30;42.60;;;;;;2322286;58;20111;-75
2022/03/11 10:31:29;;;;;;;;;;;6.30;41.90;;;;;;2322062;58;20095;-74
2022/03/11 10:34:11;;;;;;;;;;;6.40;41.40;;;;;;2322064;58;20150;-74
2022/03/11 10:36:37;;;;;;;;;;;6.50;41.60;;;;;;2563605;54;20123;-74
2022/03/11 10:39:14;;;;;;;;;;;6.50;42.20;;;;;;2321777;58;20076;-74
2022/03/11 10:41:40;;;;;;;;;;;6.60;40.40;;;;;;2322541;58;20166;-74
2022/03/11 10:44:09;;;;;;;;;;;6.70;42.20;;;;;;2322203;58;20115;-74
2022/03/11 10:46:35;;;;;;;;;;;6.70;41.20;;;;;;2322686;58;20131;-74
2022/03/11 10:49:02;;;;;;;;;;;6.80;40.60;;;;;;2322045;58;20071;-74
2022/03/11 10:51:30;;;;;;;;;;;6.90;40.00;;;;;;2563445;54;20083;-75
2022/03/11 10:53:57;;;;;;;;;;;6.90;39.60;;;;;;2322511;58;20076;-74
2022/03/11 10:56:29;;;;;;;;;;;7.00;42.40;;;;;;2563756;54;20111;-74
2022/03/11 10:58:55;;;;;;;;;;;7.10;43.00;;;;;;2563708;54;20076;-74
2022/03/11 11:01:34;;;;;;;;;;;7.10;39.50;;;;;;2321963;58;20076;-74
2022/03/11 11:04:01;;;;;;;;;;;7.20;38.10;;;;;;2322593;58;20150;-74
2022/03/11 11:06:28;;;;;;;;;;;7.30;37.00;;;;;;2322198;58;20140;-74
2022/03/11 11:08:55;;;;;;;;;;;7.30;36.70;;;;;;2321881;58;20067;-74
2022/03/11 11:11:22;;;;;;;;;;;7.40;37.60;;;;;;2322272;58;20084;-74
2022/03/11 11:13:48;;;;;;;;;;;7.50;35.60;;;;;;2321973;58;20083;-74
2022/03/11 11:16:16;;;;;;;;;;;7.60;37.10;;;;;;2322205;58;20075;-74
2022/03/11 11:18:46;;;;;;;;;;;7.70;37.90;;;;;;2322028;58;20178;-76
2022/03/11 11:21:18;;;;;;;;;;;7.80;36.60;;;;;;2322307;58;20139;-75
2022/03/11 11:23:45;;;;;;;;;;;7.80;36.90;;;;;;2322776;58;20067;-76
2022/03/11 11:26:12;;;;;;;;;;;8.00;37.90;;;;;;2321975;58;20303;-76
2022/03/11 11:28:41;;;;;;;;;;;8.10;38.20;;;;;;2322834;58;20071;-76
2022/03/11 11:31:07;;;;;;;;;;;8.20;36.10;;;;;;2322140;58;20138;-75
2022/03/11 11:33:34;;;;;;;;;;;8.30;36.20;;;;;;2322065;58;20123;-74
2022/03/11 11:36:02;;;;;;;;;;;8.40;35.30;;;;;;2562772;54;20306;-74
2022/03/11 11:38:29;;;;;;;;;;;8.40;37.50;;;;;;2563972;54;20313;-74
2022/03/11 11:40:56;;;;;;;;;;;8.50;36.90;;;;;;2320358;58;20079;-74
2022/03/11 11:43:27;;;;;;;;;;;8.60;38.50;;;;;;2322311;58;20064;-74
2022/03/11 11:45:55;;;;;;;;;;;8.70;37.40;;;;;;2563650;54;20079;-74
2022/03/11 11:48:42;;;;;;;;;;;8.80;38.30;;;;;;2322534;58;20082;-74
2022/03/11 11:51:09;;;;;;;;;;;8.90;37.50;;;;;;2321067;58;20154;-74
2022/03/11 11:53:40;;;;;;;;;;;8.90;36.40;;;;;;2322099;58;20139;-74
2022/03/11 11:56:26;;;;;;;;;;;9.00;35.20;;;;;;2563748;54;20072;-75
2022/03/11 11:58:52;;;;;;;;;;;9.10;34.50;;;;;;2321921;58;20151;-74
2022/03/11 12:01:38;;;;;;;;;;;9.20;35.10;;;;;;2321397;58;20063;-74
2022/03/11 12:04:20;;;;;;;;;;;9.30;34.40;;;;;;2321695;58;20149;-74
2022/03/11 12:06:54;;;;;;;;;;;9.40;34.10;;;;;;2322073;58;20454;-74
2022/03/11 12:09:38;;;;;;;;;;;9.40;34.00;;;;;;2321903;58;20156;-74
2022/03/11 12:12:05;;;;;;;;;;;9.50;34.00;;;;;;2563695;54;20083;-73
2022/03/11 12:14:32;;;;;;;;;;;9.50;35.30;;;;;;2322271;58;20072;-74
2022/03/11 12:17:06;;;;;;;;;;;9.50;35.60;;;;;;2321848;58;20067;-75
2022/03/11 12:19:37;;;;;;;;;;;9.60;32.60;;;;;;2322108;58;20063;-74
2022/03/11 12:22:21;;;;;;;;;;;9.60;32.40;;;;;;2563636;54;20054;-74
2022/03/11 12:24:57;;;;;;;;;;;9.60;33.00;;;;;;2322080;58;20059;-74
2022/03/11 12:27:46;;;;;;;;;;;9.70;32.50;;;;;;2563292;54;20062;-74
2022/03/11 12:30:13;;;;;;;;;;;9.70;32.30;;;;;;2321932;58;20333;-74
2022/03/11 12:32:40;;;;;;;;;;;9.70;35.70;;;;;;2322045;58;20123;-75
2022/03/11 12:35:08;;;;;;;;;;;9.80;33.30;;;;;;2322072;58;20079;-74
2022/03/11 12:37:35;;;;;;;;;;;9.80;34.00;;;;;;2563636;54;20123;-74
2022/03/11 12:40:01;;;;;;;;;;;9.80;33.00;;;;;;2321810;58;20339;-74
2022/03/11 12:42:37;;;;;;;;;;;9.80;35.20;;;;;;2322048;58;20081;-74
2022/03/11 12:45:06;;;;;;;;;;;9.90;33.20;;;;;;2322318;58;20116;-74
2022/03/11 12:47:35;;;;;;;;;;;10.00;33.60;;;;;;2322521;58;20139;-74
2022/03/11 12:50:03;;;;;;;;;;;10.00;32.80;;;;;;2321840;58;20182;-74
2022/03/11 12:52:37;;;;;;;;;;;10.00;31.20;;;;;;2321397;58;20107;-77
2022/03/11 12:55:18;;;;;;;;;;;10.00;31.10;;;;;;2563861;54;20063;-75
2022/03/11 12:57:44;;;;;;;;;;;10.00;31.30;;;;;;2321783;58;20075;-75
2022/03/11 13:00:17;;;;;;;;;;;10.10;32.20;;;;;;2316734;58;20067;-77
2022/03/11 13:02:44;;;;;;;;;;;10.10;32.60;;;;;;2321515;58;20328;-74
2022/03/11 13:05:17;;;;;;;;;;;10.10;32.90;;;;;;2320230;58;20135;-75
2022/03/11 13:07:44;;;;;;;;;;;10.20;30.70;;;;;;2561567;54;20287;-75
2022/03/11 13:10:14;;;;;;;;;;;10.20;32.90;;;;;;2320682;58;20127;-75
2022/03/11 13:12:41;;;;;;;;;;;10.30;33.30;;;;;;2320653;58;20195;-75
2022/03/11 13:15:11;;;;;;;;;;;10.30;30.40;;;;;;2563037;54;20131;-74
2022/03/11 13:17:42;;;;;;;;;;;10.30;31.40;;;;;;2562220;54;20059;-75
2022/03/11 13:20:23;;;;;;;;;;;10.30;33.00;;;;;;2321160;58;20115;-75
2022/03/11 13:22:50;;;;;;;;;;;10.40;35.10;;;;;;2321322;58;20174;-75
2022/03/11 13:25:22;;;;;;;;;;;10.40;33.60;;;;;;2562314;54;20120;-75
2022/03/11 13:27:49;;;;;;;;;;;10.50;37.90;;;;;;2562501;54;20080;-75
2022/03/11 13:30:15;;;;;;;;;;;10.60;34.90;;;;;;2562075;54;20076;-74
2022/03/11 13:32:42;;;;;;;;;;;10.60;34.80;;;;;;2562971;54;20432;-75
2022/03/11 13:35:10;;;;;;;;;;;10.70;33.40;;;;;;2562776;54;20140;-75
2022/03/11 13:37:41;;;;;;;;;;;10.80;35.80;;;;;;2320675;58;20095;-75
2022/03/11 13:40:08;;;;;;;;;;;10.80;33.50;;;;;;2321245;58;20063;-76
2022/03/11 13:42:35;;;;;;;;;;;10.80;32.30;;;;;;2320742;58;20088;-76
2022/03/11 13:45:06;;;;;;;;;;;10.90;35.70;;;;;;2321620;58;20081;-76
2022/03/11 13:47:32;;;;;;;;;;;10.90;32.90;;;;;;2321165;58;20067;-74
2022/03/11 13:50:06;;;;;;;;;;;10.80;30.70;;;;;;2321243;58;20855;-76
2022/03/11 13:52:39;;;;;;;;;;;10.90;32.60;;;;;;2562517;54;20318;-74
2022/03/11 13:55:07;;;;;;;;;;;10.80;31.70;;;;;;2321150;58;20135;-76
2022/03/11 13:57:35;;;;;;;;;;;10.80;34.70;;;;;;2321732;58;20139;-77
2022/03/11 14:00:14;;;;;;;;;;;10.80;33.50;;;;;;2321662;58;20318;-76
2022/03/11 14:02:41;;;;;;;;;;;10.90;35.30;;;;;;2321969;58;20117;-74
2022/03/11 14:05:08;;;;;;;;;;;11.00;34.10;;;;;;2322150;58;20126;-75
2022/03/11 14:07:35;;;;;;;;;;;11.00;34.10;;;;;;2321849;58;20150;-75
2022/03/11 14:10:01;;;;;;;;;;;10.90;33.10;;;;;;2319278;58;20067;-74
2022/03/11 14:12:29;;;;;;;;;;;11.00;31.20;;;;;;2321736;58;20092;-75
2022/03/11 14:15:04;;;;;;;;;;;11.00;34.00;;;;;;2321648;58;20347;-75
2022/03/11 14:17:32;;;;;;;;;;;11.00;35.00;;;;;;2318849;58;20158;-75
2022/03/11 14:19:58;;;;;;;;;;;11.10;33.90;;;;;;2319644;58;20130;-75
2022/03/11 14:22:25;;;;;;;;;;;11.10;32.30;;;;;;2562950;54;20063;-75
2022/03/11 14:24:52;;;;;;;;;;;11.10;32.70;;;;;;2321066;58;20314;-75
2022/03/11 14:27:18;;;;;;;;;;;11.10;33.40;;;;;;2321352;58;20083;-75
2022/03/11 14:29:45;;;;;;;;;;;11.10;33.70;;;;;;2321350;58;20107;-74
2022/03/11 14:32:12;;;;;;;;;;;11.20;32.60;;;;;;2320982;58;20452;-75
2022/03/11 14:34:39;;;;;;;;;;;11.20;31.30;;;;;;2320543;58;20079;-75